Romoe Maersk — OXLC2 — position and weather

sailwx.info

Track history (hours):
 
Tides and Currents Weather Stations Pressure Air Temp Water Temp Dewpoint Dewpoint Depression Visibility Wind Speed Wind Dir Waves Ship Positions

Romoe Maersk

Last reported at 2016-Jul-05 19:23 UTC. Time now 2016-Jul-25 06:17 UTC.
Position S 26°58' E 153°53'.
Warning: this ship's position is 19 days out of date.

Length 171 m; draft 7.3 m.

Type: Ship. MMSI: 220209000.

Date/timePositionNaut miles runAvg speedWind from/ knotsBaromVisibWave heightAir tempDewpointWater temp
2016-Jul-05 19:23S 26°58' E 153°53'7 8.5
2016-Jul-05 18:33S 26°54' E 153°47'16 8.0
2016-Jul-05 16:34S 26°44' E 153°33'8 8.3
2016-Jul-05 15:34S 26°43' E 153°24'8 8.3
2016-Jul-05 14:33S 26°43' E 153°14'9 9.5
2016-Jul-05 13:33S 26°51' E 153°09'1413.5
2016-Jul-05 12:33S 27°03' E 153°17'10 9.9
2016-Jul-05 11:33S 27°13' E 153°17'1211.7
2016-Jul-05 10:33S 27°23' E 153°10'0 0.4
2016-Jul-05 09:22S 27°23' E 153°10'0 0.0
2016-Jul-05 08:33S 27°23' E 153°10'0 0.0
2016-Jul-05 07:33S 27°23' E 153°10'0 0.0
2016-Jul-05 06:33S 27°23' E 153°10'0 0.0
2016-Jul-05 04:33S 27°23' E 153°10'0 0.0
2016-Jul-05 03:33S 27°23' E 153°10'0 0.0
2016-Jul-05 02:33S 27°23' E 153°10'0 0.0
2016-Jul-05 01:32S 27°23' E 153°10'0 0.0
2016-Jul-05 00:33S 27°23' E 153°10'0 0.0
2016-Jul-04 23:29S 27°23' E 153°10'0 0.0
2016-Jul-04 22:33S 27°23' E 153°10'0 0.0
2016-Jul-04 20:26S 27°23' E 153°10'0 0.0
2016-Jul-04 19:33S 27°23' E 153°10'0 0.0
2016-Jul-04 18:33S 27°23' E 153°10'0 0.0
2016-Jul-04 17:33S 27°23' E 153°10'0 0.0
2016-Jul-04 16:33S 27°23' E 153°10'0 0.0
2016-Jul-04 15:33S 27°23' E 153°10'0 0.0
2016-Jul-04 14:32S 27°23' E 153°10'0 0.0
2016-Jul-04 10:33S 27°23' E 153°10'3 2.6
2016-Jul-04 09:33S 27°21' E 153°11'1110.7
2016-Jul-04 08:33S 27°14' E 153°20'1313.4
2016-Jul-04 07:33S 27°01' E 153°15'1312.8
2016-Jul-04 06:33S 26°49' E 153°10'7 3.6
2016-Jul-04 04:32S 26°43' E 153°14'0 0.0
2016-Jul-04 03:32S 26°43' E 153°14'0 0.0
2016-Jul-04 02:32S 26°43' E 153°14'0 0.0
2016-Jul-04 01:32S 26°43' E 153°14'0 0.1
2016-Jul-04 00:29S 26°43' E 153°14'0 0.0
2016-Jul-03 23:26S 26°43' E 153°14'0 0.0
2016-Jul-03 22:32S 26°43' E 153°14'0 0.0
2016-Jul-03 21:32S 26°43' E 153°14'0 0.0
2016-Jul-03 20:32S 26°43' E 153°14'0 0.1
2016-Jul-03 19:32S 26°43' E 153°14'0 0.1
2016-Jul-03 18:32S 26°43' E 153°14'0 0.0
2016-Jul-03 17:32S 26°43' E 153°14'0 0.0
2016-Jul-03 16:25S 26°43' E 153°14'0 0.0
2016-Jul-03 15:31S 26°43' E 153°14'0 0.0
2016-Jul-03 14:31S 26°43' E 153°14'0 0.0
2016-Jul-03 12:16S 26°43' E 153°14'0 0.1
2016-Jul-03 10:31S 26°43' E 153°14'0 0.1
2016-Jul-03 07:33S 26°43' E 153°14'  
Track history (hours):
 
Tides and Currents Weather Stations Pressure Air Temp Water Temp Dewpoint Dewpoint Depression Visibility Wind Speed Wind Dir Waves Ship Positions

Romoe Maersk

Last reported at 2016-Jul-05 19:23 UTC. Time now 2016-Jul-25 06:17 UTC.
Position S 26°58' E 153°53'.
Warning: this ship's position is 19 days out of date.

Length 171 m; draft 7.3 m.

Type: Ship. MMSI: 220209000.

Date/timePositionNaut miles runAvg speedWind from/ knotsBaromVisibWave heightAir tempDewpointWater temp
2016-Jul-05 19:23S 26°58' E 153°53'7 8.5
2016-Jul-05 18:33S 26°54' E 153°47'16 8.0
2016-Jul-05 16:34S 26°44' E 153°33'8 8.3
2016-Jul-05 15:34S 26°43' E 153°24'8 8.3
2016-Jul-05 14:33S 26°43' E 153°14'9 9.5
2016-Jul-05 13:33S 26°51' E 153°09'1413.5
2016-Jul-05 12:33S 27°03' E 153°17'10 9.9
2016-Jul-05 11:33S 27°13' E 153°17'1211.7
2016-Jul-05 10:33S 27°23' E 153°10'0 0.4
2016-Jul-05 09:22S 27°23' E 153°10'0 0.0
2016-Jul-05 08:33S 27°23' E 153°10'0 0.0
2016-Jul-05 07:33S 27°23' E 153°10'0 0.0
2016-Jul-05 06:33S 27°23' E 153°10'0 0.0
2016-Jul-05 04:33S 27°23' E 153°10'0 0.0
2016-Jul-05 03:33S 27°23' E 153°10'0 0.0
2016-Jul-05 02:33S 27°23' E 153°10'0 0.0
2016-Jul-05 01:32S 27°23' E 153°10'0 0.0
2016-Jul-05 00:33S 27°23' E 153°10'0 0.0
2016-Jul-04 23:29S 27°23' E 153°10'0 0.0
2016-Jul-04 22:33S 27°23' E 153°10'0 0.0
2016-Jul-04 20:26S 27°23' E 153°10'0 0.0
2016-Jul-04 19:33S 27°23' E 153°10'0 0.0
2016-Jul-04 18:33S 27°23' E 153°10'0 0.0
2016-Jul-04 17:33S 27°23' E 153°10'0 0.0
2016-Jul-04 16:33S 27°23' E 153°10'0 0.0
2016-Jul-04 15:33S 27°23' E 153°10'0 0.0
2016-Jul-04 14:32S 27°23' E 153°10'0 0.0
2016-Jul-04 10:33S 27°23' E 153°10'3 2.6
2016-Jul-04 09:33S 27°21' E 153°11'1110.7
2016-Jul-04 08:33S 27°14' E 153°20'1313.4
2016-Jul-04 07:33S 27°01' E 153°15'1312.8
2016-Jul-04 06:33S 26°49' E 153°10'7 3.6
2016-Jul-04 04:32S 26°43' E 153°14'0 0.0
2016-Jul-04 03:32S 26°43' E 153°14'0 0.0
2016-Jul-04 02:32S 26°43' E 153°14'0 0.0
2016-Jul-04 01:32S 26°43' E 153°14'0 0.1
2016-Jul-04 00:29S 26°43' E 153°14'0 0.0
2016-Jul-03 23:26S 26°43' E 153°14'0 0.0
2016-Jul-03 22:32S 26°43' E 153°14'0 0.0
2016-Jul-03 21:32S 26°43' E 153°14'0 0.0
2016-Jul-03 20:32S 26°43' E 153°14'0 0.1
2016-Jul-03 19:32S 26°43' E 153°14'0 0.1
2016-Jul-03 18:32S 26°43' E 153°14'0 0.0
2016-Jul-03 17:32S 26°43' E 153°14'0 0.0
2016-Jul-03 16:25S 26°43' E 153°14'0 0.0
2016-Jul-03 15:31S 26°43' E 153°14'0 0.0
2016-Jul-03 14:31S 26°43' E 153°14'0 0.0
2016-Jul-03 12:16S 26°43' E 153°14'0 0.1
2016-Jul-03 10:31S 26°43' E 153°14'0 0.1
2016-Jul-03 07:33S 26°43' E 153°14'  

Dump ship's entire track history